createdAt,value
2022-10-22T00:00:20.940Z,958.68
2022-10-22T00:01:17.961Z,958.71
2022-10-22T00:02:17.979Z,958.67
2022-10-22T00:03:17.899Z,958.68
2022-10-22T00:04:17.899Z,958.71
2022-10-22T00:05:17.891Z,958.74
2022-10-22T00:06:18.000Z,958.70
2022-10-22T00:07:17.861Z,958.70
2022-10-22T00:08:17.853Z,958.67
2022-10-22T00:09:17.875Z,958.61
2022-10-22T00:10:17.874Z,958.64
2022-10-22T00:11:17.820Z,958.66
2022-10-22T00:12:17.842Z,958.69
2022-10-22T00:13:17.816Z,958.75
2022-10-22T00:14:17.792Z,958.75
2022-10-22T00:15:20.805Z,958.74
2022-10-22T00:16:17.781Z,958.76
2022-10-22T00:17:17.755Z,958.78
2022-10-22T00:18:17.758Z,958.76
2022-10-22T00:19:17.754Z,958.81
2022-10-22T00:20:17.737Z,958.82
2022-10-22T00:21:17.716Z,958.83
2022-10-22T00:22:17.715Z,958.89
2022-10-22T00:23:17.705Z,958.95
2022-10-22T00:24:17.727Z,958.95
2022-10-22T00:25:17.683Z,959.00
2022-10-22T00:26:17.666Z,959.03
2022-10-22T00:27:17.645Z,959.10
2022-10-22T00:28:17.684Z,959.14
2022-10-22T00:29:17.637Z,959.11
2022-10-22T00:30:20.648Z,959.13
2022-10-22T00:31:17.617Z,959.08
2022-10-22T00:32:17.606Z,959.07
2022-10-22T00:33:17.588Z,959.17
2022-10-22T00:34:17.586Z,959.13
2022-10-22T00:35:17.623Z,959.11
2022-10-22T00:36:17.590Z,959.12
2022-10-22T00:37:17.599Z,959.20
2022-10-22T00:38:17.548Z,959.11
2022-10-22T00:39:17.539Z,959.03
2022-10-22T00:40:17.522Z,959.11
2022-10-22T00:41:17.513Z,959.15
2022-10-22T00:42:17.500Z,959.13
2022-10-22T00:43:17.492Z,959.15
2022-10-22T00:44:17.480Z,959.23
2022-10-22T00:45:20.470Z,959.27
2022-10-22T00:46:17.473Z,959.27
2022-10-22T00:47:17.450Z,959.27
2022-10-22T00:48:17.476Z,959.24
2022-10-22T00:49:17.436Z,959.28
2022-10-22T00:50:17.416Z,959.32
2022-10-22T00:51:17.404Z,959.29
2022-10-22T00:52:17.401Z,959.35
2022-10-22T00:53:17.385Z,959.36
2022-10-22T00:54:17.372Z,959.42
2022-10-22T00:55:17.363Z,959.44
2022-10-22T00:56:17.353Z,959.46
2022-10-22T00:57:17.344Z,959.42
2022-10-22T00:58:17.335Z,959.39
2022-10-22T00:59:17.362Z,959.40
2022-10-22T01:00:20.322Z,959.43
2022-10-22T01:01:17.352Z,959.46
2022-10-22T01:02:17.294Z,959.50
2022-10-22T01:03:17.289Z,959.47
2022-10-22T01:04:17.259Z,959.50
2022-10-22T01:05:17.272Z,959.53
2022-10-22T01:06:17.254Z,959.47
2022-10-22T01:07:17.245Z,959.47
2022-10-22T01:08:17.231Z,959.46
2022-10-22T01:09:17.217Z,959.46
2022-10-22T01:10:17.231Z,959.39
2022-10-22T01:11:17.188Z,959.36
2022-10-22T01:12:17.189Z,959.38
2022-10-22T01:13:17.193Z,959.31
2022-10-22T01:14:17.169Z,959.32
2022-10-22T01:15:20.261Z,959.36
2022-10-22T01:16:17.172Z,959.27
2022-10-22T01:17:17.231Z,959.22
2022-10-22T01:18:17.147Z,959.19
2022-10-22T01:19:17.125Z,959.14
2022-10-22T01:20:17.102Z,959.14
2022-10-22T01:21:17.094Z,959.19
2022-10-22T01:22:17.089Z,959.26
2022-10-22T01:23:17.086Z,959.26
2022-10-22T01:24:17.073Z,959.25
2022-10-22T01:25:17.051Z,959.20
2022-10-22T01:26:17.104Z,959.23
2022-10-22T01:27:17.032Z,959.16
2022-10-22T01:28:17.055Z,959.14
2022-10-22T01:29:17.016Z,959.17
2022-10-22T01:30:20.005Z,959.18
2022-10-22T01:31:17.014Z,959.10
2022-10-22T01:32:16.981Z,959.04
2022-10-22T01:33:16.984Z,958.95
2022-10-22T01:34:16.957Z,958.94
2022-10-22T01:35:16.948Z,958.95
2022-10-22T01:36:16.936Z,958.89
2022-10-22T01:37:16.930Z,958.88
2022-10-22T01:38:16.922Z,958.84
2022-10-22T01:39:17.016Z,958.80
2022-10-22T01:40:16.919Z,958.77
2022-10-22T01:41:16.928Z,958.72
2022-10-22T01:42:16.947Z,958.75
2022-10-22T01:43:16.870Z,958.71
2022-10-22T01:44:16.858Z,958.77
2022-10-22T01:45:19.847Z,958.74
2022-10-22T01:46:16.854Z,958.75
2022-10-22T01:47:16.818Z,958.65
2022-10-22T01:48:16.817Z,958.65
2022-10-22T01:49:16.802Z,958.58
2022-10-22T01:50:16.800Z,958.59
2022-10-22T01:51:16.781Z,958.57
2022-10-22T01:52:16.870Z,958.57
2022-10-22T01:53:16.760Z,958.63
2022-10-22T01:54:16.769Z,958.68
2022-10-22T01:55:16.745Z,958.76
2022-10-22T01:56:16.734Z,958.81
2022-10-22T01:57:16.720Z,958.81
2022-10-22T01:58:16.712Z,958.88
2022-10-22T01:59:16.715Z,958.88
2022-10-22T02:00:19.712Z,958.84
2022-10-22T02:01:16.694Z,958.88
2022-10-22T02:02:16.671Z,958.91
2022-10-22T02:03:18.711Z,958.89
2022-10-22T02:04:16.693Z,958.92
2022-10-22T02:05:16.634Z,958.91
2022-10-22T02:06:16.636Z,958.89
2022-10-22T02:07:16.615Z,958.87
2022-10-22T02:08:16.611Z,958.92
2022-10-22T02:09:16.644Z,958.88
2022-10-22T02:10:16.590Z,958.87
2022-10-22T02:11:16.580Z,958.84
2022-10-22T02:12:16.558Z,958.90
2022-10-22T02:13:16.548Z,958.90
2022-10-22T02:14:16.550Z,958.97
2022-10-22T02:15:19.548Z,958.96
2022-10-22T02:16:16.538Z,958.96
2022-10-22T02:17:16.508Z,958.95
2022-10-22T02:18:16.518Z,958.94
2022-10-22T02:19:16.499Z,958.98
2022-10-22T02:20:16.491Z,958.98
2022-10-22T02:21:16.469Z,959.01
2022-10-22T02:22:16.461Z,959.02
2022-10-22T02:23:16.514Z,958.97
2022-10-22T02:24:16.439Z,958.98
2022-10-22T02:25:16.426Z,958.98
2022-10-22T02:26:16.422Z,958.97
2022-10-22T02:27:16.413Z,958.95
2022-10-22T02:28:16.393Z,958.90
2022-10-22T02:29:16.390Z,958.94
2022-10-22T02:30:19.377Z,958.97
2022-10-22T02:31:16.385Z,959.00
2022-10-22T02:32:16.361Z,959.05
2022-10-22T02:33:16.374Z,959.06
2022-10-22T02:34:16.341Z,959.06
2022-10-22T02:35:16.323Z,959.03
2022-10-22T02:36:16.346Z,959.04
2022-10-22T02:37:16.304Z,959.03
2022-10-22T02:38:16.295Z,959.00
2022-10-22T02:40:16.274Z,959.08
2022-10-22T02:41:16.261Z,959.06
2022-10-22T02:42:16.255Z,959.07
2022-10-22T02:43:16.234Z,959.07
2022-10-22T02:44:16.233Z,959.06
2022-10-22T02:45:19.227Z,959.10
2022-10-22T02:46:16.225Z,959.09
2022-10-22T02:47:16.328Z,959.09
2022-10-22T02:48:16.242Z,959.08
2022-10-22T02:49:16.178Z,959.10
2022-10-22T02:50:16.178Z,959.09
2022-10-22T02:51:16.158Z,959.13
2022-10-22T02:52:16.138Z,959.19
2022-10-22T02:53:16.169Z,959.15
2022-10-22T02:54:16.130Z,959.15
2022-10-22T02:55:16.118Z,959.16
2022-10-22T02:56:16.124Z,959.19
2022-10-22T02:57:16.135Z,959.20
2022-10-22T02:58:16.111Z,959.24
2022-10-22T02:59:16.072Z,959.27
2022-10-22T03:00:19.166Z,959.25
2022-10-22T03:01:16.332Z,959.20
2022-10-22T03:02:16.052Z,959.24
2022-10-22T03:03:16.041Z,959.23
2022-10-22T03:04:16.021Z,959.23
2022-10-22T03:05:16.028Z,959.23
2022-10-22T03:06:16.047Z,959.22
2022-10-22T03:07:15.998Z,959.28
2022-10-22T03:08:16.124Z,959.27
2022-10-22T03:09:15.986Z,959.34
2022-10-22T03:10:15.965Z,959.37
2022-10-22T03:11:15.958Z,959.41
2022-10-22T03:12:15.973Z,959.43
2022-10-22T03:13:15.925Z,959.43
2022-10-22T03:14:15.916Z,959.52
2022-10-22T03:15:18.987Z,959.48
2022-10-22T03:16:15.915Z,959.42
2022-10-22T03:17:15.905Z,959.43
2022-10-22T03:18:15.876Z,959.42
2022-10-22T03:19:15.869Z,959.37
2022-10-22T03:20:15.856Z,959.38
2022-10-22T03:21:15.847Z,959.37
2022-10-22T03:22:15.839Z,959.42
2022-10-22T03:23:15.827Z,959.44
2022-10-22T03:24:15.820Z,959.40
2022-10-22T03:25:15.813Z,959.41
2022-10-22T03:26:15.801Z,959.42
2022-10-22T03:27:15.776Z,959.35
2022-10-22T03:28:15.800Z,959.36
2022-10-22T03:29:15.763Z,959.34
2022-10-22T03:30:18.767Z,959.33
2022-10-22T03:31:15.758Z,959.37
2022-10-22T03:32:15.729Z,959.34
2022-10-22T03:33:15.721Z,959.27
2022-10-22T03:34:15.710Z,959.21
2022-10-22T03:35:15.813Z,959.26
2022-10-22T03:36:15.690Z,959.26
2022-10-22T03:37:15.729Z,959.27
2022-10-22T03:38:15.685Z,959.30
2022-10-22T03:39:15.662Z,959.38
2022-10-22T03:40:15.655Z,959.37
2022-10-22T03:41:15.645Z,959.35
2022-10-22T03:42:15.632Z,959.43
2022-10-22T03:43:15.622Z,959.44
2022-10-22T03:44:15.605Z,959.45
2022-10-22T03:45:18.654Z,959.45
2022-10-22T03:46:15.602Z,959.41
2022-10-22T03:47:15.576Z,959.44
2022-10-22T03:48:15.565Z,959.37
2022-10-22T03:49:15.553Z,959.36
2022-10-22T03:50:15.545Z,959.35
2022-10-22T03:51:15.531Z,959.37
2022-10-22T03:52:15.523Z,959.32
2022-10-22T03:53:15.507Z,959.35
2022-10-22T03:54:15.517Z,959.35
2022-10-22T03:55:15.500Z,959.35
2022-10-22T03:56:15.485Z,959.30
2022-10-22T03:57:15.498Z,959.29
2022-10-22T03:58:15.465Z,959.29
2022-10-22T03:59:15.449Z,959.28
2022-10-22T04:00:18.550Z,959.31
2022-10-22T04:01:15.483Z,959.40
2022-10-22T04:02:15.428Z,959.42
2022-10-22T04:03:15.410Z,959.41
2022-10-22T04:04:15.397Z,959.40
2022-10-22T04:05:15.395Z,959.41
2022-10-22T04:06:15.382Z,959.39
2022-10-22T04:07:15.359Z,959.41
2022-10-22T04:08:15.360Z,959.35
2022-10-22T04:09:15.405Z,959.30
2022-10-22T04:10:15.342Z,959.31
2022-10-22T04:11:15.363Z,959.29
2022-10-22T04:12:15.321Z,959.26
2022-10-22T04:13:15.304Z,959.24
2022-10-22T04:14:15.291Z,959.23
2022-10-22T04:15:18.293Z,959.24
2022-10-22T04:16:15.298Z,959.25
2022-10-22T04:17:15.278Z,959.27
2022-10-22T04:18:15.263Z,959.24
2022-10-22T04:19:15.244Z,959.26
2022-10-22T04:20:15.254Z,959.30
2022-10-22T04:21:15.225Z,959.32
2022-10-22T04:22:15.251Z,959.34
2022-10-22T04:23:15.196Z,959.39
2022-10-22T04:24:15.185Z,959.47
2022-10-22T04:25:15.186Z,959.51
2022-10-22T04:26:15.172Z,959.55
2022-10-22T04:27:15.167Z,959.57
2022-10-22T04:28:15.144Z,959.52
2022-10-22T04:29:16.289Z,959.56
2022-10-22T04:30:18.131Z,959.55
2022-10-22T04:31:15.137Z,959.54
2022-10-22T04:32:15.115Z,959.49
2022-10-22T04:33:15.118Z,959.53
2022-10-22T04:34:15.099Z,959.57
2022-10-22T04:35:15.115Z,959.58
2022-10-22T04:36:15.078Z,959.60
2022-10-22T04:37:15.156Z,959.62
2022-10-22T04:38:15.050Z,959.61
2022-10-22T04:39:15.033Z,959.63
2022-10-22T04:40:15.030Z,959.66
2022-10-22T04:41:15.019Z,959.65
2022-10-22T04:42:15.021Z,959.69
2022-10-22T04:43:14.991Z,959.66
2022-10-22T04:44:17.170Z,959.68
2022-10-22T04:45:17.968Z,959.68
2022-10-22T04:46:14.985Z,959.69
2022-10-22T04:47:14.985Z,959.68
2022-10-22T04:48:14.942Z,959.65
2022-10-22T04:49:14.938Z,959.67
2022-10-22T04:50:14.934Z,959.67
2022-10-22T04:51:14.911Z,959.64
2022-10-22T04:52:14.924Z,959.69
2022-10-22T04:53:14.894Z,959.70
2022-10-22T04:54:15.170Z,959.71
2022-10-22T04:55:14.871Z,959.76
2022-10-22T04:56:14.863Z,959.83
2022-10-22T04:57:14.849Z,959.79
2022-10-22T04:58:14.841Z,959.75
2022-10-22T04:59:14.824Z,959.70
2022-10-22T05:00:17.816Z,959.69
2022-10-22T05:01:14.856Z,959.70
2022-10-22T05:02:14.800Z,959.73
2022-10-22T05:03:14.786Z,959.70
2022-10-22T05:04:14.786Z,959.72
2022-10-22T05:05:14.776Z,959.73
2022-10-22T05:06:14.855Z,959.72
2022-10-22T05:07:14.746Z,959.76
2022-10-22T05:08:14.740Z,959.77
2022-10-22T05:09:14.896Z,959.74
2022-10-22T05:10:14.730Z,959.72
2022-10-22T05:11:14.706Z,959.69
2022-10-22T05:12:14.750Z,959.70
2022-10-22T05:13:14.680Z,959.63
2022-10-22T05:14:14.685Z,959.65
2022-10-22T05:15:17.778Z,959.64
2022-10-22T05:16:14.682Z,959.69
2022-10-22T05:17:14.655Z,959.70
2022-10-22T05:18:16.821Z,959.64
2022-10-22T05:19:14.631Z,959.68
2022-10-22T05:20:14.633Z,959.66
2022-10-22T05:21:14.600Z,959.68
2022-10-22T05:22:14.584Z,959.72
2022-10-22T05:23:14.601Z,959.75
2022-10-22T05:24:14.574Z,959.81
2022-10-22T05:25:14.594Z,959.85
2022-10-22T05:26:14.572Z,959.84
2022-10-22T05:27:14.634Z,959.92
2022-10-22T05:28:14.500Z,959.95
2022-10-22T05:29:14.464Z,959.98
2022-10-22T05:30:17.510Z,960.03
2022-10-22T05:31:14.536Z,960.02
2022-10-22T05:32:14.454Z,960.01
2022-10-22T05:33:14.427Z,960.04
2022-10-22T05:34:14.465Z,960.03
2022-10-22T05:35:14.414Z,960.06
2022-10-22T05:36:14.397Z,960.04
2022-10-22T05:37:14.383Z,960.06
2022-10-22T05:38:14.377Z,960.06
2022-10-22T05:39:14.355Z,960.07
2022-10-22T05:40:26.463Z,960.05
2022-10-22T05:41:15.345Z,960.09
2022-10-22T05:42:14.361Z,960.14
2022-10-22T05:43:14.322Z,960.15
2022-10-22T05:44:14.308Z,960.15
2022-10-22T05:45:17.298Z,960.16
2022-10-22T05:46:17.568Z,960.22
2022-10-22T05:47:14.300Z,960.14
2022-10-22T05:48:14.267Z,960.19
2022-10-22T05:49:14.276Z,960.16
2022-10-22T05:50:14.248Z,960.19
2022-10-22T05:51:14.236Z,960.25
2022-10-22T05:52:14.232Z,960.21
2022-10-22T05:53:14.214Z,960.19
2022-10-22T05:54:14.220Z,960.18
2022-10-22T05:55:14.189Z,960.21
2022-10-22T05:56:14.191Z,960.28
2022-10-22T05:57:14.172Z,960.27
2022-10-22T05:58:14.159Z,960.19
2022-10-22T05:59:14.150Z,960.21
2022-10-22T06:00:17.152Z,960.21
2022-10-22T06:01:14.154Z,960.27
2022-10-22T06:02:14.208Z,960.30
2022-10-22T06:03:14.113Z,960.29
2022-10-22T06:04:14.110Z,960.42
2022-10-22T06:05:14.096Z,960.44
2022-10-22T06:06:14.073Z,960.42
2022-10-22T06:07:14.072Z,960.47
2022-10-22T06:08:18.217Z,960.46
2022-10-22T06:09:14.092Z,960.45
2022-10-22T06:10:14.042Z,960.46
2022-10-22T06:11:14.022Z,960.44
2022-10-22T06:12:14.010Z,960.45
2022-10-22T06:13:14.126Z,960.39
2022-10-22T06:14:14.005Z,960.43
2022-10-22T06:15:16.991Z,960.42
2022-10-22T06:16:13.995Z,960.47
2022-10-22T06:17:13.958Z,960.48
2022-10-22T06:18:13.958Z,960.48
2022-10-22T06:19:13.966Z,960.49
2022-10-22T06:20:13.937Z,960.46
2022-10-22T06:21:13.925Z,960.51
2022-10-22T06:22:13.919Z,960.50
2022-10-22T06:23:13.899Z,960.47
2022-10-22T06:24:13.907Z,960.49
2022-10-22T06:25:13.881Z,960.44
2022-10-22T06:26:13.877Z,960.43
2022-10-22T06:27:13.880Z,960.42
2022-10-22T06:28:13.906Z,960.38
2022-10-22T06:29:13.841Z,960.34
2022-10-22T06:30:17.780Z,960.33
2022-10-22T06:31:13.831Z,960.29
2022-10-22T06:32:13.834Z,960.30
2022-10-22T06:33:13.799Z,960.31
2022-10-22T06:34:13.831Z,960.32
2022-10-22T06:35:13.781Z,960.32
2022-10-22T06:36:13.763Z,960.31
2022-10-22T06:37:13.754Z,960.28
2022-10-22T06:38:13.737Z,960.29
2022-10-22T06:39:13.747Z,960.24
2022-10-22T06:40:13.744Z,960.26
2022-10-22T06:41:13.712Z,960.27
2022-10-22T06:42:13.701Z,960.28
2022-10-22T06:43:13.693Z,960.27
2022-10-22T06:44:13.698Z,960.36
2022-10-22T06:45:16.692Z,960.39
2022-10-22T06:46:16.103Z,960.46
2022-10-22T06:47:13.645Z,960.51
2022-10-22T06:48:13.637Z,960.60
2022-10-22T06:49:13.659Z,960.65
2022-10-22T06:50:13.623Z,960.61
2022-10-22T06:51:13.606Z,960.62
2022-10-22T06:52:13.597Z,960.60
2022-10-22T06:53:13.635Z,960.67
2022-10-22T06:54:13.608Z,960.65
2022-10-22T06:55:13.568Z,960.70
2022-10-22T06:56:13.563Z,960.71
2022-10-22T06:57:13.549Z,960.70
2022-10-22T06:58:13.538Z,960.70
2022-10-22T06:59:13.634Z,960.72
2022-10-22T07:00:16.521Z,960.78
2022-10-22T07:01:13.636Z,960.88
2022-10-22T07:02:13.500Z,960.95
2022-10-22T07:03:13.501Z,960.97
2022-10-22T07:04:13.472Z,961.02
2022-10-22T07:05:13.469Z,961.07
2022-10-22T07:06:13.449Z,961.06
2022-10-22T07:07:13.454Z,961.13
2022-10-22T07:08:13.428Z,961.09
2022-10-22T07:09:13.595Z,961.19
2022-10-22T07:10:13.412Z,961.22
2022-10-22T07:11:13.410Z,961.24
2022-10-22T07:12:13.414Z,961.28
2022-10-22T07:13:13.383Z,961.25
2022-10-22T07:14:13.375Z,961.24
2022-10-22T07:15:16.368Z,961.24
2022-10-22T07:16:13.371Z,961.22
2022-10-22T07:17:13.343Z,961.23
2022-10-22T07:18:13.341Z,961.20
2022-10-22T07:19:13.323Z,961.22
2022-10-22T07:20:13.314Z,961.28
2022-10-22T07:21:13.296Z,961.28
2022-10-22T07:22:13.286Z,961.30
2022-10-22T07:23:13.274Z,961.30
2022-10-22T07:24:13.285Z,961.32
2022-10-22T07:25:13.257Z,961.35
2022-10-22T07:26:13.246Z,961.29
2022-10-22T07:27:13.242Z,961.29
2022-10-22T07:28:13.242Z,961.27
2022-10-22T07:29:13.246Z,961.28
2022-10-22T07:30:16.217Z,961.29
2022-10-22T07:31:13.219Z,961.22
2022-10-22T07:32:13.204Z,961.28
2022-10-22T07:33:13.169Z,961.26
2022-10-22T07:34:13.240Z,961.28
2022-10-22T07:35:13.159Z,961.31
2022-10-22T07:36:13.142Z,961.32
2022-10-22T07:37:13.128Z,961.32
2022-10-22T07:38:13.118Z,961.34
2022-10-22T07:39:13.130Z,961.28
2022-10-22T07:40:13.110Z,961.26
2022-10-22T07:41:13.105Z,961.30
2022-10-22T07:42:13.077Z,961.31
2022-10-22T07:43:13.075Z,961.32
2022-10-22T07:44:13.070Z,961.32
2022-10-22T07:45:16.054Z,961.32
2022-10-22T07:46:13.093Z,961.32
2022-10-22T07:47:13.031Z,961.30
2022-10-22T07:48:13.018Z,961.31
2022-10-22T07:49:13.000Z,961.34
2022-10-22T07:50:13.004Z,961.38
2022-10-22T07:51:13.021Z,961.40
2022-10-22T07:52:12.976Z,961.43
2022-10-22T07:53:12.974Z,961.39
2022-10-22T07:54:12.979Z,961.36
2022-10-22T07:55:12.942Z,961.35
2022-10-22T07:56:12.936Z,961.36
2022-10-22T07:57:12.926Z,961.37
2022-10-22T07:58:12.916Z,961.41
2022-10-22T07:59:12.918Z,961.45
2022-10-22T08:00:15.898Z,961.43
2022-10-22T08:01:12.999Z,961.44
2022-10-22T08:02:12.874Z,961.41
2022-10-22T08:03:12.868Z,961.44
2022-10-22T08:04:12.846Z,961.43
2022-10-22T08:05:12.850Z,961.42
2022-10-22T08:06:12.832Z,961.37
2022-10-22T08:07:12.826Z,961.42
2022-10-22T08:09:12.892Z,961.44
2022-10-22T08:10:12.796Z,961.46
2022-10-22T08:11:12.777Z,961.44
2022-10-22T08:12:12.768Z,961.42
2022-10-22T08:13:12.780Z,961.40
2022-10-22T08:14:12.742Z,961.44
2022-10-22T08:15:15.739Z,961.44
2022-10-22T08:16:12.742Z,961.45
2022-10-22T08:17:12.716Z,961.45
2022-10-22T08:18:12.714Z,961.45
2022-10-22T08:19:12.701Z,961.50
2022-10-22T08:20:12.691Z,961.53
2022-10-22T08:22:12.665Z,961.48
2022-10-22T08:23:12.694Z,961.53
2022-10-22T08:24:12.756Z,961.51
2022-10-22T08:25:12.637Z,961.55
2022-10-22T08:26:12.622Z,961.53
2022-10-22T08:27:12.617Z,961.51
2022-10-22T08:28:12.944Z,961.51
2022-10-22T08:29:12.590Z,961.50
2022-10-22T08:30:15.623Z,961.49
2022-10-22T08:31:12.585Z,961.47
2022-10-22T08:32:12.564Z,961.47
2022-10-22T08:33:12.554Z,961.48
2022-10-22T08:34:12.545Z,961.46
2022-10-22T08:35:14.205Z,961.49
2022-10-22T08:36:12.513Z,961.46
2022-10-22T08:37:12.509Z,961.48
2022-10-22T08:38:12.517Z,961.50
2022-10-22T08:39:12.506Z,961.49
2022-10-22T08:40:12.478Z,961.51
2022-10-22T08:41:12.479Z,961.50
2022-10-22T08:42:12.464Z,961.51
2022-10-22T08:43:12.521Z,961.52
2022-10-22T08:44:12.449Z,961.53
2022-10-22T08:45:15.462Z,961.53
2022-10-22T08:46:12.431Z,961.54
2022-10-22T08:47:12.486Z,961.58
2022-10-22T08:48:12.409Z,961.54
2022-10-22T08:49:12.387Z,961.57
2022-10-22T08:50:12.380Z,961.60
2022-10-22T08:51:12.377Z,961.58
2022-10-22T08:52:12.400Z,961.56
2022-10-22T08:53:12.346Z,961.58
2022-10-22T08:54:12.336Z,961.60
2022-10-22T08:55:12.329Z,961.59
2022-10-22T08:56:12.315Z,961.56
2022-10-22T08:57:12.303Z,961.61
2022-10-22T08:58:12.295Z,961.61
2022-10-22T08:59:12.278Z,961.58
2022-10-22T09:00:15.274Z,961.60
2022-10-22T09:01:12.316Z,961.58
2022-10-22T09:02:12.251Z,961.57
2022-10-22T09:03:12.233Z,961.55
2022-10-22T09:04:12.233Z,961.54
2022-10-22T09:05:12.378Z,961.58
2022-10-22T09:06:12.205Z,961.55
2022-10-22T09:08:12.189Z,961.58
2022-10-22T09:09:12.215Z,961.55
2022-10-22T09:10:12.165Z,961.56
2022-10-22T09:11:12.156Z,961.54
2022-10-22T09:12:15.300Z,961.56
2022-10-22T09:13:12.129Z,961.58
2022-10-22T09:14:12.185Z,961.61
2022-10-22T09:15:15.131Z,961.62
2022-10-22T09:16:12.119Z,961.68
2022-10-22T09:17:12.096Z,961.69
2022-10-22T09:18:12.079Z,961.66
2022-10-22T09:19:12.111Z,961.65
2022-10-22T09:20:12.060Z,961.70
2022-10-22T09:21:12.040Z,961.68
2022-10-22T09:23:12.033Z,961.71
2022-10-22T09:24:12.011Z,961.73
2022-10-22T09:25:12.044Z,961.76
2022-10-22T09:26:11.992Z,961.75
2022-10-22T09:27:11.981Z,961.73
2022-10-22T09:28:11.984Z,961.78
2022-10-22T09:29:11.964Z,961.75
2022-10-22T09:30:15.154Z,961.77
2022-10-22T09:31:11.956Z,961.78
2022-10-22T09:32:11.935Z,961.80
2022-10-22T09:33:11.921Z,961.82
2022-10-22T09:34:11.903Z,961.82
2022-10-22T09:35:11.904Z,961.82
2022-10-22T09:36:11.901Z,961.83
2022-10-22T09:37:11.872Z,961.83
2022-10-22T09:38:11.866Z,961.84
2022-10-22T09:39:11.898Z,961.75
2022-10-22T09:40:11.858Z,961.76
2022-10-22T09:41:11.869Z,961.77
2022-10-22T09:42:11.826Z,961.77
2022-10-22T09:43:11.830Z,961.73
2022-10-22T09:44:11.808Z,961.80
2022-10-22T09:45:14.842Z,961.82
2022-10-22T09:46:11.800Z,961.76
2022-10-22T09:47:11.771Z,961.80
2022-10-22T09:48:11.771Z,961.80
2022-10-22T09:49:11.761Z,961.74
2022-10-22T09:50:11.743Z,961.81
2022-10-22T09:51:11.739Z,961.76
2022-10-22T09:52:11.721Z,961.81
2022-10-22T09:53:11.710Z,961.77
2022-10-22T09:54:11.703Z,961.75
2022-10-22T09:55:11.699Z,961.74
2022-10-22T09:56:11.802Z,961.74
2022-10-22T09:57:11.664Z,961.78
2022-10-22T09:58:11.660Z,961.80
2022-10-22T09:59:11.644Z,961.81
2022-10-22T10:00:14.634Z,961.84
2022-10-22T10:01:11.684Z,961.85
2022-10-22T10:02:19.720Z,961.87
2022-10-22T10:03:12.669Z,961.90
2022-10-22T10:04:11.623Z,961.87
2022-10-22T10:05:11.585Z,961.88
2022-10-22T10:06:11.578Z,961.84
2022-10-22T10:07:11.569Z,961.82
2022-10-22T10:08:11.555Z,961.85
2022-10-22T10:09:11.640Z,961.80
2022-10-22T10:10:11.536Z,961.84
2022-10-22T10:11:11.535Z,961.83
2022-10-22T10:12:11.608Z,961.83
2022-10-22T10:13:11.519Z,961.87
2022-10-22T10:14:11.536Z,961.89
2022-10-22T10:15:14.480Z,961.91
2022-10-22T10:16:11.525Z,961.89
2022-10-22T10:17:11.467Z,961.87
2022-10-22T10:18:11.615Z,961.89
2022-10-22T10:19:11.442Z,961.94
2022-10-22T10:20:11.428Z,961.92
2022-10-22T10:21:11.485Z,961.95
2022-10-22T10:22:11.421Z,961.93
2022-10-22T10:23:11.421Z,961.93
2022-10-22T10:24:11.430Z,961.91
2022-10-22T10:25:11.371Z,961.89
2022-10-22T10:26:11.383Z,961.94
2022-10-22T10:27:11.360Z,961.95
2022-10-22T10:28:11.354Z,961.98
2022-10-22T10:29:11.335Z,962.01
2022-10-22T10:30:14.437Z,961.98
2022-10-22T10:31:11.343Z,962.01
2022-10-22T10:32:11.303Z,962.02
2022-10-22T10:33:11.299Z,962.02
2022-10-22T10:34:11.275Z,961.97
2022-10-22T10:35:11.273Z,962.00
2022-10-22T10:36:11.268Z,962.01
2022-10-22T10:37:11.260Z,962.02
2022-10-22T10:38:11.251Z,962.00
2022-10-22T10:39:11.239Z,961.97
2022-10-22T10:40:11.227Z,961.99
2022-10-22T10:41:11.237Z,961.96
2022-10-22T10:42:11.217Z,962.01
2022-10-22T10:43:11.222Z,962.00
2022-10-22T10:44:11.180Z,962.01
2022-10-22T10:45:14.169Z,961.97
2022-10-22T10:46:11.198Z,962.01
2022-10-22T10:47:11.178Z,961.94
2022-10-22T10:48:11.141Z,961.95
2022-10-22T10:49:11.131Z,961.97
2022-10-22T10:50:11.118Z,962.00
2022-10-22T10:51:11.109Z,961.98
2022-10-22T10:52:11.090Z,961.97
2022-10-22T10:53:11.082Z,961.98
2022-10-22T10:54:11.076Z,962.02
2022-10-22T10:55:11.062Z,962.03
2022-10-22T10:56:11.054Z,962.03
2022-10-22T10:57:11.049Z,962.03
2022-10-22T10:58:11.059Z,961.99
2022-10-22T10:59:11.021Z,962.02
2022-10-22T11:00:14.016Z,961.98
2022-10-22T11:01:11.025Z,962.02
2022-10-22T11:02:10.993Z,962.00
2022-10-22T11:03:10.982Z,962.01
2022-10-22T11:04:10.965Z,962.04
2022-10-22T11:05:10.963Z,962.02
2022-10-22T11:06:10.956Z,962.04
2022-10-22T11:07:16.908Z,962.02
2022-10-22T11:08:11.925Z,962.00
2022-10-22T11:09:11.003Z,961.99
2022-10-22T11:10:10.953Z,962.04
2022-10-22T11:11:11.009Z,962.02
2022-10-22T11:12:10.886Z,961.98
2022-10-22T11:13:10.879Z,961.99
2022-10-22T11:14:10.909Z,961.95
2022-10-22T11:15:13.850Z,961.96
2022-10-22T11:16:10.860Z,961.94
2022-10-22T11:17:10.839Z,961.96
2022-10-22T11:18:10.831Z,961.92
2022-10-22T11:19:11.285Z,961.90
2022-10-22T11:20:10.845Z,961.92
2022-10-22T11:21:10.792Z,961.87
2022-10-22T11:22:11.746Z,961.87
2022-10-22T11:23:19.684Z,961.87
2022-10-22T11:24:10.764Z,961.88
2022-10-22T11:25:10.802Z,961.87
2022-10-22T11:26:10.742Z,961.88
2022-10-22T11:27:10.737Z,961.87
2022-10-22T11:28:11.493Z,961.88
2022-10-22T11:29:10.710Z,961.84
2022-10-22T11:30:13.723Z,961.85
2022-10-22T11:31:10.703Z,961.84
2022-10-22T11:32:10.699Z,961.86
2022-10-22T11:33:10.675Z,961.82
2022-10-22T11:34:32.085Z,961.83
2022-10-22T11:35:11.645Z,961.83
2022-10-22T11:36:10.658Z,961.83
2022-10-22T11:37:10.627Z,961.85
2022-10-22T11:38:10.615Z,961.86
2022-10-22T11:39:10.605Z,961.83
2022-10-22T11:40:10.607Z,961.87
2022-10-22T11:41:10.617Z,961.84
2022-10-22T11:42:10.580Z,961.82
2022-10-22T11:43:10.569Z,961.81
2022-10-22T11:44:10.558Z,961.79
2022-10-22T11:45:13.553Z,961.82
2022-10-22T11:46:10.552Z,961.81
2022-10-22T11:47:10.528Z,961.82
2022-10-22T11:48:10.522Z,961.77
2022-10-22T11:49:10.524Z,961.81
2022-10-22T11:50:10.493Z,961.78
2022-10-22T11:51:10.481Z,961.78
2022-10-22T11:52:10.472Z,961.76
2022-10-22T11:54:10.475Z,961.79
2022-10-22T11:55:10.443Z,961.78
2022-10-22T11:56:10.425Z,961.76
2022-10-22T11:57:10.424Z,961.78
2022-10-22T11:58:10.424Z,961.69
2022-10-22T11:59:10.415Z,961.74
2022-10-22T12:00:13.390Z,961.71
2022-10-22T12:01:10.397Z,961.75
2022-10-22T12:02:10.377Z,961.71
2022-10-22T12:03:10.365Z,961.71
2022-10-22T12:04:10.487Z,961.72
2022-10-22T12:05:10.335Z,961.67
2022-10-22T12:06:10.326Z,961.66
2022-10-22T12:07:10.346Z,961.64
2022-10-22T12:08:14.771Z,961.67
2022-10-22T12:09:10.386Z,961.67
2022-10-22T12:10:11.489Z,961.62
2022-10-22T12:11:10.270Z,961.63
2022-10-22T12:13:10.249Z,961.65
2022-10-22T12:14:10.253Z,961.58
2022-10-22T12:15:13.244Z,961.63
2022-10-22T12:16:12.852Z,961.64
2022-10-22T12:17:11.209Z,961.61
2022-10-22T12:18:10.277Z,961.61
2022-10-22T12:19:10.192Z,961.57
2022-10-22T12:20:10.180Z,961.56
2022-10-22T12:21:10.173Z,961.53
2022-10-22T12:22:10.173Z,961.54
2022-10-22T12:23:10.187Z,961.55
2022-10-22T12:24:10.144Z,961.54
2022-10-22T12:25:10.124Z,961.61
2022-10-22T12:26:10.162Z,961.59
2022-10-22T12:27:12.413Z,961.60
2022-10-22T12:28:11.027Z,961.59
2022-10-22T12:29:10.088Z,961.54
2022-10-22T12:30:13.083Z,961.57
2022-10-22T12:31:10.076Z,961.54
2022-10-22T12:32:10.050Z,961.57
2022-10-22T12:33:10.151Z,961.54
2022-10-22T12:34:10.034Z,961.61
2022-10-22T12:35:10.021Z,961.59